createdAt,value
2019-01-12T00:00:31.770Z,54.40
2019-01-12T00:03:00.022Z,54.40
2019-01-12T00:05:28.253Z,54.50
2019-01-12T00:07:56.495Z,54.50
2019-01-12T00:10:24.725Z,54.40
2019-01-12T00:12:52.981Z,54.40
2019-01-12T00:15:21.790Z,54.50
2019-01-12T00:17:50.045Z,54.80
2019-01-12T00:20:18.273Z,54.40
2019-01-12T00:22:47.088Z,54.40
2019-01-12T00:25:15.329Z,54.30
2019-01-12T00:27:43.561Z,54.30
2019-01-12T00:30:13.046Z,54.30
2019-01-12T00:32:41.276Z,54.40
2019-01-12T00:35:09.566Z,54.30
2019-01-12T00:37:37.794Z,54.30
2019-01-12T00:40:07.773Z,54.30
2019-01-12T00:42:36.012Z,54.40
2019-01-12T00:45:06.901Z,54.30
2019-01-12T00:47:35.705Z,54.30
2019-01-12T00:50:06.593Z,54.30
2019-01-12T00:52:34.821Z,54.40
2019-01-12T00:55:03.318Z,54.40
2019-01-12T00:57:31.545Z,54.40
2019-01-12T00:59:59.781Z,54.40
2019-01-12T01:02:28.015Z,54.40
2019-01-12T01:04:56.263Z,54.30
2019-01-12T01:07:24.498Z,54.40
2019-01-12T01:09:53.062Z,54.30
2019-01-12T01:12:21.295Z,54.30
2019-01-12T01:14:50.110Z,54.30
2019-01-12T01:17:18.341Z,54.30
2019-01-12T01:19:46.581Z,54.40
2019-01-12T01:22:14.899Z,54.30
2019-01-12T01:24:45.887Z,54.30
2019-01-12T01:27:13.716Z,54.50
2019-01-12T01:29:41.941Z,54.40
2019-01-12T01:32:10.510Z,54.30
2019-01-12T01:34:38.737Z,54.40
2019-01-12T01:37:06.999Z,54.40
2019-01-12T01:39:35.226Z,54.40
2019-01-12T01:42:03.486Z,54.40
2019-01-12T01:44:31.709Z,54.40
2019-01-12T01:46:59.960Z,54.40
2019-01-12T01:49:28.212Z,54.40
2019-01-12T01:51:56.457Z,54.40
2019-01-12T01:54:24.704Z,54.50
2019-01-12T01:56:52.942Z,54.40
2019-01-12T01:59:21.179Z,54.50
2019-01-12T02:01:49.422Z,54.50
2019-01-12T02:04:17.653Z,54.50
2019-01-12T02:06:45.905Z,54.50
2019-01-12T02:09:14.140Z,54.80
2019-01-12T02:11:42.387Z,54.50
2019-01-12T02:14:10.645Z,54.50
2019-01-12T02:16:38.898Z,54.60
2019-01-12T02:19:07.125Z,54.50
2019-01-12T02:21:35.935Z,54.50
2019-01-12T02:24:04.174Z,54.50
2019-01-12T02:26:32.414Z,54.50
2019-01-12T02:29:00.645Z,54.60
2019-01-12T02:31:28.915Z,54.50
2019-01-12T02:33:57.139Z,54.50
2019-01-12T02:36:25.389Z,54.50
2019-01-12T02:38:53.943Z,54.60
2019-01-12T02:41:22.527Z,54.70
2019-01-12T02:43:50.773Z,54.70
2019-01-12T02:46:19.010Z,54.70
2019-01-12T02:48:47.245Z,54.70
2019-01-12T02:51:15.521Z,54.60
2019-01-12T02:53:43.754Z,54.70
2019-01-12T02:56:11.989Z,54.70
2019-01-12T02:58:40.238Z,54.70
2019-01-12T03:01:08.472Z,54.70
2019-01-12T03:03:36.757Z,54.70
2019-01-12T03:06:05.017Z,54.70
2019-01-12T03:08:33.257Z,54.70
2019-01-12T03:11:01.493Z,54.60
2019-01-12T03:13:29.752Z,54.60
2019-01-12T03:15:57.983Z,55.40
2019-01-12T03:18:26.225Z,54.80
2019-01-12T03:20:54.456Z,54.80
2019-01-12T03:23:22.720Z,54.80
2019-01-12T03:25:50.953Z,54.80
2019-01-12T03:28:19.781Z,54.80
2019-01-12T03:30:48.019Z,54.80
2019-01-12T03:33:16.275Z,54.80
2019-01-12T03:35:44.506Z,54.80
2019-01-12T03:38:12.760Z,54.70
2019-01-12T03:40:40.996Z,54.70
2019-01-12T03:43:09.238Z,54.70
2019-01-12T03:45:37.468Z,54.80
2019-01-12T03:48:05.721Z,54.80
2019-01-12T03:50:33.953Z,54.70
2019-01-12T03:53:02.235Z,54.80
2019-01-12T03:55:30.486Z,54.80
2019-01-12T03:57:58.746Z,55.00
2019-01-12T04:00:26.977Z,55.00
2019-01-12T04:02:55.208Z,55.00
2019-01-12T04:05:23.473Z,55.00
2019-01-12T04:07:51.697Z,55.00
2019-01-12T04:10:19.968Z,55.00
2019-01-12T04:12:48.194Z,54.90
2019-01-12T04:15:16.439Z,54.90
2019-01-12T04:17:44.709Z,54.90
2019-01-12T04:20:15.016Z,54.90
2019-01-12T04:22:43.269Z,54.90
2019-01-12T04:25:11.597Z,55.00
2019-01-12T04:27:39.822Z,54.90
2019-01-12T04:30:11.255Z,55.00
2019-01-12T04:32:39.521Z,55.00
2019-01-12T04:35:07.951Z,55.10
2019-01-12T04:37:36.253Z,55.10
2019-01-12T04:40:08.394Z,55.10
2019-01-12T04:42:37.288Z,55.10
2019-01-12T04:45:07.498Z,55.00
2019-01-12T04:47:35.761Z,55.00
2019-01-12T04:50:06.232Z,55.00
2019-01-12T04:52:34.486Z,54.90
2019-01-12T04:55:03.106Z,55.10
2019-01-12T04:57:31.339Z,54.90
2019-01-12T04:59:59.867Z,55.00
2019-01-12T05:02:28.201Z,55.00
2019-01-12T05:04:56.448Z,55.00
2019-01-12T05:07:24.991Z,55.00
2019-01-12T05:09:53.481Z,55.00
2019-01-12T05:12:21.722Z,55.00
2019-01-12T05:14:49.958Z,55.10
2019-01-12T05:17:18.214Z,55.10
2019-01-12T05:19:46.468Z,55.00
2019-01-12T05:22:15.286Z,55.00
2019-01-12T05:24:43.509Z,55.00
2019-01-12T05:27:11.780Z,55.00
2019-01-12T05:29:39.997Z,55.00
2019-01-12T05:32:08.242Z,54.90
2019-01-12T05:34:36.469Z,54.90
2019-01-12T05:37:04.712Z,55.60
2019-01-12T05:39:32.947Z,55.00
2019-01-12T05:42:01.225Z,55.00
2019-01-12T05:44:30.041Z,55.00
2019-01-12T05:46:58.301Z,55.10
2019-01-12T05:49:26.551Z,55.10
2019-01-12T05:51:54.806Z,55.20
2019-01-12T05:54:23.033Z,55.10
2019-01-12T05:56:51.530Z,55.20
2019-01-12T05:59:19.775Z,55.20
2019-01-12T06:01:48.601Z,55.10
2019-01-12T06:04:16.859Z,55.20
2019-01-12T06:06:45.107Z,55.10
2019-01-12T06:09:13.918Z,55.20
2019-01-12T06:11:42.193Z,55.10
2019-01-12T06:14:10.494Z,55.10
2019-01-12T06:16:38.745Z,55.10
2019-01-12T06:19:07.008Z,55.10
2019-01-12T06:21:35.825Z,55.10
2019-01-12T06:24:04.108Z,55.20
2019-01-12T06:26:32.333Z,55.20
2019-01-12T06:29:00.582Z,55.20
2019-01-12T06:31:28.836Z,55.10
2019-01-12T06:33:57.095Z,55.10
2019-01-12T06:36:25.350Z,55.20
2019-01-12T06:38:53.615Z,55.10
2019-01-12T06:41:21.864Z,55.20
2019-01-12T06:43:50.121Z,55.80
2019-01-12T06:46:19.025Z,55.10
2019-01-12T06:48:47.275Z,55.10
2019-01-12T06:51:15.529Z,55.10
2019-01-12T06:53:43.790Z,55.00
2019-01-12T06:56:12.025Z,55.10
2019-01-12T06:58:40.879Z,55.10
2019-01-12T07:01:09.121Z,55.00
2019-01-12T07:03:37.361Z,55.10
2019-01-12T07:06:05.612Z,55.20
2019-01-12T07:08:33.849Z,55.20
2019-01-12T07:11:02.104Z,55.10
2019-01-12T07:13:30.333Z,55.20
2019-01-12T07:15:58.574Z,55.00
2019-01-12T07:18:26.833Z,55.10
2019-01-12T07:20:55.073Z,55.10
2019-01-12T07:23:23.345Z,55.80
2019-01-12T07:25:51.606Z,55.20
2019-01-12T07:28:19.858Z,55.10
2019-01-12T07:30:48.120Z,55.10
2019-01-12T07:33:16.378Z,55.10
2019-01-12T07:35:44.615Z,55.10
2019-01-12T07:38:12.869Z,55.00
2019-01-12T07:40:41.109Z,55.10
2019-01-12T07:43:09.344Z,55.10
2019-01-12T07:45:37.625Z,55.10
2019-01-12T07:48:06.531Z,55.10
2019-01-12T07:50:34.767Z,55.10
2019-01-12T07:53:03.853Z,55.10
2019-01-12T07:55:32.085Z,55.10
2019-01-12T07:58:00.357Z,55.10
2019-01-12T08:00:28.861Z,55.50
2019-01-12T08:02:57.129Z,55.00
2019-01-12T08:05:25.381Z,55.00
2019-01-12T08:07:54.117Z,55.00
2019-01-12T08:10:22.914Z,55.00
2019-01-12T08:12:51.152Z,55.00
2019-01-12T08:15:19.385Z,54.90
2019-01-12T08:17:47.630Z,55.00
2019-01-12T08:20:15.894Z,55.00
2019-01-12T08:22:44.137Z,55.00
2019-01-12T08:25:12.393Z,55.00
2019-01-12T08:27:40.657Z,55.00
2019-01-12T08:30:16.773Z,54.90
2019-01-12T08:32:45.013Z,54.90
2019-01-12T08:35:13.417Z,54.90
2019-01-12T08:37:41.664Z,55.00
2019-01-12T08:40:11.230Z,54.80
2019-01-12T08:42:39.473Z,54.80
2019-01-12T08:45:09.349Z,54.80
2019-01-12T08:47:37.604Z,54.80
2019-01-12T08:50:09.249Z,54.80
2019-01-12T08:52:37.514Z,54.70
2019-01-12T08:55:07.907Z,54.80
2019-01-12T08:57:36.183Z,54.80
2019-01-12T09:00:10.813Z,54.90
2019-01-12T09:02:39.042Z,54.90
2019-01-12T09:05:07.286Z,55.00
2019-01-12T09:07:35.517Z,54.90
2019-01-12T09:10:05.229Z,54.90
2019-01-12T09:12:33.481Z,55.00
2019-01-12T09:15:01.744Z,54.90
2019-01-12T09:17:30.001Z,54.80
2019-01-12T09:19:58.242Z,54.80
2019-01-12T09:22:26.470Z,54.80
2019-01-12T09:24:54.709Z,56.50
2019-01-12T09:27:23.508Z,56.50
2019-01-12T09:29:51.757Z,56.60
2019-01-12T09:32:19.989Z,56.20
2019-01-12T09:34:48.233Z,55.80
2019-01-12T09:37:16.504Z,55.70
2019-01-12T09:39:44.765Z,56.70
2019-01-12T09:42:13.012Z,57.90
2019-01-12T09:44:41.274Z,57.70
2019-01-12T09:47:09.522Z,58.10
2019-01-12T09:49:37.760Z,57.90
2019-01-12T09:52:06.017Z,57.30
2019-01-12T09:54:34.293Z,56.50
2019-01-12T09:57:03.101Z,56.10
2019-01-12T09:59:31.379Z,55.70
2019-01-12T10:01:59.605Z,55.50
2019-01-12T10:04:27.833Z,55.20
2019-01-12T10:06:56.114Z,55.00
2019-01-12T10:09:24.354Z,55.00
2019-01-12T10:11:52.843Z,54.90
2019-01-12T10:14:21.073Z,54.80
2019-01-12T10:16:49.333Z,54.60
2019-01-12T10:19:17.588Z,54.50
2019-01-12T10:21:46.396Z,54.50
2019-01-12T10:24:14.630Z,54.40
2019-01-12T10:26:42.874Z,54.40
2019-01-12T10:29:11.571Z,54.30
2019-01-12T10:31:40.352Z,54.20
2019-01-12T10:34:08.608Z,54.20
2019-01-12T10:36:36.889Z,54.20
2019-01-12T10:39:07.331Z,53.90
2019-01-12T10:41:35.584Z,55.40
2019-01-12T10:44:03.829Z,55.40
2019-01-12T10:46:32.114Z,55.20
2019-01-12T10:49:00.348Z,54.80
2019-01-12T10:51:28.597Z,54.30
2019-01-12T10:53:56.846Z,54.00
2019-01-12T10:56:25.089Z,54.00
2019-01-12T10:58:53.482Z,53.70
2019-01-12T11:01:21.721Z,54.00
2019-01-12T11:03:49.959Z,54.00
2019-01-12T11:06:18.206Z,54.00
2019-01-12T11:08:46.437Z,54.10
2019-01-12T11:11:14.692Z,54.00
2019-01-12T11:13:43.016Z,53.90
2019-01-12T11:16:11.238Z,53.70
2019-01-12T11:18:39.513Z,53.60
2019-01-12T11:21:07.761Z,53.50
2019-01-12T11:23:36.578Z,53.30
2019-01-12T11:26:04.821Z,53.30
2019-01-12T11:28:33.074Z,53.30
2019-01-12T11:31:01.313Z,53.30
2019-01-12T11:33:29.561Z,53.30
2019-01-12T11:35:57.803Z,53.50
2019-01-12T11:38:26.069Z,53.40
2019-01-12T11:40:54.858Z,53.50
2019-01-12T11:43:23.108Z,53.50
2019-01-12T11:45:51.361Z,53.50
2019-01-12T11:48:19.597Z,53.60
2019-01-12T11:50:47.836Z,53.50
2019-01-12T11:53:16.114Z,53.60
2019-01-12T11:55:44.368Z,53.50
2019-01-12T11:58:12.602Z,53.60
2019-01-12T12:00:40.842Z,53.50
2019-01-12T12:03:09.107Z,53.50
2019-01-12T12:05:37.354Z,53.50
2019-01-12T12:08:05.873Z,54.20
2019-01-12T12:10:34.122Z,53.60
2019-01-12T12:13:02.353Z,53.60
2019-01-12T12:15:30.631Z,53.50
2019-01-12T12:17:58.882Z,53.40
2019-01-12T12:20:27.151Z,53.30
2019-01-12T12:22:55.412Z,53.30
2019-01-12T12:25:23.665Z,53.30
2019-01-12T12:27:51.909Z,53.30
2019-01-12T12:30:22.769Z,53.20
2019-01-12T12:32:51.025Z,53.30
2019-01-12T12:35:19.457Z,53.30
2019-01-12T12:37:47.681Z,53.30
2019-01-12T12:40:18.213Z,53.30
2019-01-12T12:42:46.515Z,53.00
2019-01-12T12:45:17.205Z,52.80
2019-01-12T12:47:45.458Z,52.80
2019-01-12T12:50:15.268Z,52.80
2019-01-12T12:52:43.505Z,52.80
2019-01-12T12:55:13.107Z,52.80
2019-01-12T12:57:41.328Z,53.50
2019-01-12T13:00:20.577Z,53.00
2019-01-12T13:02:48.828Z,53.10
2019-01-12T13:05:17.084Z,53.50
2019-01-12T13:07:45.328Z,52.90
2019-01-12T13:10:18.277Z,53.10
2019-01-12T13:12:46.505Z,53.10
2019-01-12T13:15:15.108Z,53.10
2019-01-12T13:17:43.357Z,53.40
2019-01-12T13:20:16.826Z,53.20
2019-01-12T13:22:45.228Z,54.00
2019-01-12T13:25:13.447Z,53.10
2019-01-12T13:27:41.752Z,53.40
2019-01-12T13:30:15.411Z,53.50
2019-01-12T13:32:43.669Z,53.40
2019-01-12T13:35:14.614Z,53.50
2019-01-12T13:37:42.944Z,53.50
2019-01-12T13:40:14.405Z,53.60
2019-01-12T13:42:42.665Z,53.40
2019-01-12T13:45:13.562Z,53.40
2019-01-12T13:47:41.821Z,53.40
2019-01-12T13:50:12.385Z,53.40
2019-01-12T13:52:40.637Z,53.50
2019-01-12T13:55:11.236Z,53.30
2019-01-12T13:57:39.478Z,53.30
2019-01-12T14:00:10.981Z,53.40
2019-01-12T14:02:39.573Z,53.40
2019-01-12T14:05:07.877Z,53.50
2019-01-12T14:07:36.122Z,53.50
2019-01-12T14:10:07.449Z,53.50
2019-01-12T14:12:35.714Z,53.50
2019-01-12T14:15:07.365Z,53.60
2019-01-12T14:17:35.633Z,53.60
2019-01-12T14:20:07.138Z,53.60
2019-01-12T14:22:35.406Z,53.70
2019-01-12T14:25:04.669Z,53.70
2019-01-12T14:27:32.917Z,53.80
2019-01-12T14:30:01.641Z,54.30
2019-01-12T14:32:30.148Z,54.40
2019-01-12T14:34:58.508Z,54.70
2019-01-12T14:37:26.769Z,54.50
2019-01-12T14:39:55.021Z,54.40
2019-01-12T14:42:23.278Z,54.20
2019-01-12T14:44:51.536Z,54.20
2019-01-12T14:47:19.773Z,54.10
2019-01-12T14:49:48.005Z,54.10
2019-01-12T14:52:16.259Z,54.10
2019-01-12T14:54:44.509Z,54.10
2019-01-12T14:57:12.777Z,54.70
2019-01-12T14:59:41.040Z,54.20
2019-01-12T15:02:09.275Z,54.70
2019-01-12T15:04:37.499Z,54.10
2019-01-12T15:07:06.113Z,54.10
2019-01-12T15:09:34.481Z,54.00
2019-01-12T15:12:02.743Z,53.60
2019-01-12T15:14:31.549Z,54.00
2019-01-12T15:16:59.786Z,54.20
2019-01-12T15:19:28.031Z,54.10
2019-01-12T15:21:56.261Z,54.10
2019-01-12T15:24:24.501Z,54.10
2019-01-12T15:26:52.801Z,54.10
2019-01-12T15:29:21.065Z,54.10
2019-01-12T15:31:49.965Z,54.20
2019-01-12T15:34:18.329Z,54.70
2019-01-12T15:36:46.568Z,54.10
2019-01-12T15:39:14.823Z,54.00
2019-01-12T15:41:43.100Z,54.10
2019-01-12T15:44:11.337Z,54.00
2019-01-12T15:46:39.564Z,54.00
2019-01-12T15:49:07.836Z,54.10
2019-01-12T15:51:36.096Z,54.10
2019-01-12T15:54:04.349Z,54.10
2019-01-12T15:56:32.572Z,54.20
2019-01-12T15:59:00.853Z,54.20
2019-01-12T16:01:29.103Z,54.20
2019-01-12T16:03:57.337Z,54.20
2019-01-12T16:06:25.589Z,54.20
2019-01-12T16:08:54.397Z,54.20
2019-01-12T16:11:22.669Z,54.20
2019-01-12T16:13:50.929Z,54.10
2019-01-12T16:16:19.473Z,54.20
2019-01-12T16:18:47.749Z,54.00
2019-01-12T16:21:16.009Z,53.80
2019-01-12T16:23:44.266Z,53.80
2019-01-12T16:26:12.494Z,53.80
2019-01-12T16:28:40.774Z,53.80
2019-01-12T16:31:09.101Z,53.90
2019-01-12T16:33:37.368Z,53.90
2019-01-12T16:36:05.888Z,54.00
2019-01-12T16:38:34.140Z,54.10
2019-01-12T16:41:02.393Z,54.20
2019-01-12T16:43:30.630Z,54.20
2019-01-12T16:45:58.864Z,54.30
2019-01-12T16:48:27.129Z,54.20
2019-01-12T16:50:55.392Z,54.20
2019-01-12T16:53:23.617Z,54.20
2019-01-12T16:55:51.890Z,54.20
2019-01-12T16:58:20.612Z,54.10
2019-01-12T17:00:48.869Z,54.00
2019-01-12T17:03:17.108Z,54.10
2019-01-12T17:05:45.341Z,54.00
2019-01-12T17:08:13.577Z,54.10
2019-01-12T17:10:41.821Z,54.10
2019-01-12T17:13:10.077Z,54.10
2019-01-12T17:15:38.317Z,54.20
2019-01-12T17:18:06.565Z,54.30
2019-01-12T17:20:34.801Z,54.30
2019-01-12T17:23:03.065Z,54.30
2019-01-12T17:25:31.886Z,54.40
2019-01-12T17:28:00.128Z,54.40
2019-01-12T17:30:28.945Z,54.30
2019-01-12T17:32:57.201Z,54.40
2019-01-12T17:35:25.441Z,54.50
2019-01-12T17:37:53.693Z,54.50
2019-01-12T17:40:21.948Z,57.80
2019-01-12T17:42:50.177Z,57.10
2019-01-12T17:45:21.137Z,56.10
2019-01-12T17:47:49.380Z,61.80
2019-01-12T17:50:20.126Z,67.10
2019-01-12T17:52:48.365Z,76.30
2019-01-12T17:55:19.912Z,71.20
2019-01-12T17:57:48.717Z,71.20
2019-01-12T18:00:26.371Z,69.40
2019-01-12T18:02:54.624Z,65.20
2019-01-12T18:05:22.869Z,64.00
2019-01-12T18:07:51.136Z,62.40
2019-01-12T18:10:19.833Z,61.30
2019-01-12T18:12:48.161Z,61.00
2019-01-12T18:15:16.701Z,60.70
2019-01-12T18:17:44.960Z,59.90
2019-01-12T18:20:17.608Z,59.60
2019-01-12T18:22:45.833Z,59.30
2019-01-12T18:25:14.099Z,59.10
2019-01-12T18:27:42.601Z,59.00
2019-01-12T18:30:24.897Z,59.40
2019-01-12T18:32:53.154Z,58.50
2019-01-12T18:35:21.422Z,58.40
2019-01-12T18:37:49.681Z,58.90
2019-01-12T18:40:19.189Z,58.30
2019-01-12T18:42:47.421Z,58.40
2019-01-12T18:45:17.618Z,59.20
2019-01-12T18:47:45.945Z,58.60
2019-01-12T18:50:22.178Z,59.30
2019-01-12T18:52:50.486Z,59.70
2019-01-12T18:55:18.776Z,59.90
2019-01-12T18:57:47.019Z,59.70
2019-01-12T19:00:23.357Z,59.40
2019-01-12T19:02:51.608Z,59.60
2019-01-12T19:05:19.860Z,58.90
2019-01-12T19:07:48.230Z,58.80
2019-01-12T19:10:16.585Z,58.20
2019-01-12T19:12:44.833Z,58.60
2019-01-12T19:15:24.454Z,58.50
2019-01-12T19:17:52.720Z,58.50
2019-01-12T19:20:20.973Z,58.80
2019-01-12T19:22:49.215Z,58.30
2019-01-12T19:25:17.617Z,58.20
2019-01-12T19:27:45.893Z,58.10
2019-01-12T19:30:18.932Z,58.00
2019-01-12T19:32:47.174Z,57.90
2019-01-12T19:35:15.431Z,58.50
2019-01-12T19:37:43.757Z,57.70
2019-01-12T19:40:17.385Z,57.60
2019-01-12T19:42:45.626Z,57.50
2019-01-12T19:45:15.105Z,57.60
2019-01-12T19:47:43.350Z,57.50
2019-01-12T19:50:17.888Z,57.40
2019-01-12T19:52:46.196Z,57.30
2019-01-12T19:55:14.457Z,57.40
2019-01-12T19:57:42.711Z,57.50
2019-01-12T20:00:16.101Z,57.30
2019-01-12T20:02:44.377Z,57.30
2019-01-12T20:05:12.629Z,57.30
2019-01-12T20:07:40.866Z,57.30
2019-01-12T20:10:11.953Z,57.30
2019-01-12T20:12:40.220Z,57.30
2019-01-12T20:15:11.774Z,57.10
2019-01-12T20:17:40.077Z,57.10
2019-01-12T20:20:11.256Z,57.00
2019-01-12T20:22:39.517Z,56.90
2019-01-12T20:25:10.890Z,57.00
2019-01-12T20:27:39.138Z,57.00
2019-01-12T20:30:13.232Z,57.00
2019-01-12T20:33:01.448Z,57.00
2019-01-12T20:35:39.041Z,57.00
2019-01-12T20:38:13.511Z,57.10
2019-01-12T20:40:47.540Z,56.90
2019-01-12T20:43:31.090Z,57.20
2019-01-12T20:46:08.369Z,56.90
2019-01-12T20:48:42.549Z,56.90
2019-01-12T20:51:40.762Z,57.50
2019-01-12T20:54:21.060Z,56.50
2019-01-12T20:57:02.082Z,56.80
2019-01-12T20:59:36.678Z,56.90
2019-01-12T21:02:14.240Z,56.80
2019-01-12T21:04:51.689Z,56.70
2019-01-12T21:07:32.085Z,56.70
2019-01-12T21:10:23.285Z,56.90
2019-01-12T21:13:00.456Z,56.80
2019-01-12T21:15:32.193Z,56.60
2019-01-12T21:18:00.421Z,56.70
2019-01-12T21:20:28.957Z,56.70
2019-01-12T21:22:57.189Z,56.70
2019-01-12T21:25:25.436Z,56.60
2019-01-12T21:27:53.881Z,56.50
2019-01-12T21:30:22.717Z,56.50
2019-01-12T21:32:51.677Z,56.50
2019-01-12T21:35:19.921Z,56.30
2019-01-12T21:37:48.145Z,56.30
2019-01-12T21:40:16.414Z,56.60
2019-01-12T21:42:44.645Z,56.20
2019-01-12T21:45:14.637Z,56.10
2019-01-12T21:47:42.853Z,56.20
2019-01-12T21:50:13.761Z,56.10
2019-01-12T21:52:42.060Z,56.10
2019-01-12T21:55:10.898Z,56.20
2019-01-12T21:57:39.141Z,56.20
2019-01-12T22:00:10.662Z,56.10
2019-01-12T22:02:38.894Z,56.00
2019-01-12T22:05:08.707Z,56.10
2019-01-12T22:07:36.930Z,56.20
2019-01-12T22:10:08.444Z,56.30
2019-01-12T22:12:36.692Z,56.80
2019-01-12T22:15:08.160Z,56.10
2019-01-12T22:17:36.409Z,56.10
2019-01-12T22:20:07.907Z,56.10
2019-01-12T22:22:36.161Z,56.10
2019-01-12T22:25:05.413Z,56.10
2019-01-12T22:27:34.233Z,56.10
2019-01-12T22:30:02.469Z,56.10
2019-01-12T22:32:30.716Z,56.20
2019-01-12T22:34:58.969Z,56.10
2019-01-12T22:37:27.262Z,56.20
2019-01-12T22:39:55.620Z,56.00
2019-01-12T22:42:23.875Z,55.50
2019-01-12T22:44:52.104Z,55.30
2019-01-12T22:47:20.372Z,55.40
2019-01-12T22:49:48.621Z,55.50
2019-01-12T22:52:16.885Z,56.10
2019-01-12T22:54:45.110Z,55.60
2019-01-12T22:57:13.372Z,46.00
2019-01-12T22:59:41.604Z,41.10
2019-01-12T23:02:10.212Z,40.80
2019-01-12T23:04:38.466Z,43.60
2019-01-12T23:07:11.455Z,46.40
2019-01-12T23:09:37.056Z,47.10
2019-01-12T23:12:05.881Z,47.20
2019-01-12T23:14:34.138Z,47.30
2019-01-12T23:17:02.397Z,48.00
2019-01-12T23:19:30.637Z,48.30
2019-01-12T23:21:58.905Z,48.50
2019-01-12T23:24:27.129Z,48.90
2019-01-12T23:26:55.364Z,48.90
2019-01-12T23:29:23.617Z,49.10
2019-01-12T23:31:51.849Z,49.30
2019-01-12T23:34:20.257Z,49.50
2019-01-12T23:36:48.506Z,49.50
2019-01-12T23:39:16.746Z,49.70
2019-01-12T23:41:45.001Z,49.70
2019-01-12T23:44:14.951Z,49.90
2019-01-12T23:46:43.525Z,50.10
2019-01-12T23:49:11.785Z,50.20
2019-01-12T23:51:40.045Z,50.30
2019-01-12T23:54:08.300Z,50.40
2019-01-12T23:56:37.112Z,50.60
2019-01-12T23:59:05.386Z,50.70
